sensor_id;sensor_type;location;lat;lon;timestamp;P1;durP1;ratioP1;P2;durP2;ratioP2
72198;SDS011;60103;51.014;16.992;2022-07-04T00:00:54;11.00;;;6.00;;
72198;SDS011;60103;51.014;16.992;2022-07-04T00:03:21;11.00;;;5.90;;
72198;SDS011;60103;51.014;16.992;2022-07-04T00:05:48;10.30;;;5.70;;
72198;SDS011;60103;51.014;16.992;2022-07-04T00:08:16;9.90;;;5.40;;
72198;SDS011;60103;51.014;16.992;2022-07-04T00:10:45;10.30;;;5.70;;
72198;SDS011;60103;51.014;16.992;2022-07-04T00:13:12;10.40;;;5.80;;
72198;SDS011;60103;51.014;16.992;2022-07-04T00:15:39;12.70;;;6.30;;
72198;SDS011;60103;51.014;16.992;2022-07-04T00:18:07;10.40;;;6.00;;
72198;SDS011;60103;51.014;16.992;2022-07-04T00:20:34;11.50;;;5.70;;
72198;SDS011;60103;51.014;16.992;2022-07-04T00:23:01;10.90;;;6.30;;
72198;SDS011;60103;51.014;16.992;2022-07-04T00:25:30;10.70;;;6.50;;
72198;SDS011;60103;51.014;16.992;2022-07-04T00:27:57;11.60;;;5.90;;
72198;SDS011;60103;51.014;16.992;2022-07-04T00:30:24;10.10;;;5.90;;
72198;SDS011;60103;51.014;16.992;2022-07-04T00:32:52;10.70;;;6.50;;
72198;SDS011;60103;51.014;16.992;2022-07-04T00:35:20;10.90;;;6.80;;
72198;SDS011;60103;51.014;16.992;2022-07-04T00:37:47;12.70;;;6.70;;
72198;SDS011;60103;51.014;16.992;2022-07-04T00:40:14;11.70;;;6.80;;
72198;SDS011;60103;51.014;16.992;2022-07-04T00:42:41;11.50;;;6.60;;
72198;SDS011;60103;51.014;16.992;2022-07-04T00:45:09;10.70;;;6.40;;
72198;SDS011;60103;51.014;16.992;2022-07-04T00:47:37;13.00;;;6.80;;
72198;SDS011;60103;51.014;16.992;2022-07-04T00:50:05;13.20;;;6.30;;
72198;SDS011;60103;51.014;16.992;2022-07-04T00:52:33;12.00;;;6.60;;
72198;SDS011;60103;51.014;16.992;2022-07-04T00:55:00;13.20;;;6.90;;
72198;SDS011;60103;51.014;16.992;2022-07-04T00:57:28;13.00;;;7.50;;
72198;SDS011;60103;51.014;16.992;2022-07-04T00:59:56;12.80;;;7.40;;
72198;SDS011;60103;51.014;16.992;2022-07-04T01:02:23;12.40;;;7.20;;
72198;SDS011;60103;51.014;16.992;2022-07-04T01:04:50;12.50;;;7.80;;
72198;SDS011;60103;51.014;16.992;2022-07-04T01:07:18;13.20;;;7.70;;
72198;SDS011;60103;51.014;16.992;2022-07-04T01:09:47;11.70;;;6.70;;
72198;SDS011;60103;51.014;16.992;2022-07-04T01:12:27;13.20;;;7.50;;
72198;SDS011;60103;51.014;16.992;2022-07-04T01:14:55;13.30;;;6.50;;
72198;SDS011;60103;51.014;16.992;2022-07-04T01:17:23;13.40;;;6.70;;
72198;SDS011;60103;51.014;16.992;2022-07-04T01:19:50;12.90;;;6.90;;
72198;SDS011;60103;51.014;16.992;2022-07-04T01:22:19;12.40;;;7.20;;
72198;SDS011;60103;51.014;16.992;2022-07-04T01:24:49;14.50;;;7.20;;
72198;SDS011;60103;51.014;16.992;2022-07-04T01:27:17;13.20;;;7.50;;
72198;SDS011;60103;51.014;16.992;2022-07-04T01:29:45;13.60;;;7.20;;
72198;SDS011;60103;51.014;16.992;2022-07-04T01:32:13;12.50;;;6.80;;
72198;SDS011;60103;51.014;16.992;2022-07-04T01:34:40;12.40;;;6.60;;
72198;SDS011;60103;51.014;16.992;2022-07-04T01:37:09;12.20;;;6.90;;
72198;SDS011;60103;51.014;16.992;2022-07-04T01:39:37;11.90;;;6.90;;
72198;SDS011;60103;51.014;16.992;2022-07-04T01:42:05;13.90;;;7.10;;
72198;SDS011;60103;51.014;16.992;2022-07-04T01:44:33;14.00;;;7.10;;
72198;SDS011;60103;51.014;16.992;2022-07-04T01:47:01;12.00;;;7.00;;
72198;SDS011;60103;51.014;16.992;2022-07-04T01:49:29;12.70;;;6.70;;
72198;SDS011;60103;51.014;16.992;2022-07-04T01:51:56;13.20;;;7.00;;
72198;SDS011;60103;51.014;16.992;2022-07-04T01:54:23;12.50;;;6.80;;
72198;SDS011;60103;51.014;16.992;2022-07-04T01:56:51;15.20;;;6.30;;
72198;SDS011;60103;51.014;16.992;2022-07-04T01:59:19;14.60;;;6.70;;
72198;SDS011;60103;51.014;16.992;2022-07-04T02:02:06;12.90;;;6.70;;
72198;SDS011;60103;51.014;16.992;2022-07-04T02:04:36;13.30;;;6.40;;
72198;SDS011;60103;51.014;16.992;2022-07-04T02:07:04;12.50;;;6.70;;
72198;SDS011;60103;51.014;16.992;2022-07-04T02:09:31;14.90;;;7.10;;
72198;SDS011;60103;51.014;16.992;2022-07-04T02:11:59;16.00;;;6.60;;
72198;SDS011;60103;51.014;16.992;2022-07-04T02:14:44;12.90;;;7.00;;
72198;SDS011;60103;51.014;16.992;2022-07-04T02:17:12;14.40;;;6.80;;
72198;SDS011;60103;51.014;16.992;2022-07-04T02:19:39;15.50;;;6.80;;
72198;SDS011;60103;51.014;16.992;2022-07-04T02:22:08;14.40;;;6.40;;
72198;SDS011;60103;51.014;16.992;2022-07-04T02:24:35;16.80;;;6.80;;
72198;SDS011;60103;51.014;16.992;2022-07-04T02:27:03;13.10;;;6.10;;
72198;SDS011;60103;51.014;16.992;2022-07-04T02:29:30;15.20;;;6.60;;
72198;SDS011;60103;51.014;16.992;2022-07-04T02:31:58;16.50;;;6.40;;
72198;SDS011;60103;51.014;16.992;2022-07-04T02:34:25;12.60;;;6.60;;
72198;SDS011;60103;51.014;16.992;2022-07-04T02:36:53;12.50;;;6.30;;
72198;SDS011;60103;51.014;16.992;2022-07-04T02:39:20;11.50;;;6.00;;
72198;SDS011;60103;51.014;16.992;2022-07-04T02:41:47;16.80;;;6.20;;
72198;SDS011;60103;51.014;16.992;2022-07-04T02:44:22;12.40;;;6.10;;
72198;SDS011;60103;51.014;16.992;2022-07-04T02:46:49;10.10;;;5.70;;
72198;SDS011;60103;51.014;16.992;2022-07-04T02:49:16;12.70;;;6.00;;
72198;SDS011;60103;51.014;16.992;2022-07-04T02:51:43;12.90;;;6.30;;
72198;SDS011;60103;51.014;16.992;2022-07-04T02:54:11;12.20;;;5.80;;
72198;SDS011;60103;51.014;16.992;2022-07-04T02:56:38;16.30;;;5.60;;
72198;SDS011;60103;51.014;16.992;2022-07-04T02:59:06;13.00;;;5.90;;
72198;SDS011;60103;51.014;16.992;2022-07-04T03:01:33;12.40;;;5.70;;
72198;SDS011;60103;51.014;16.992;2022-07-04T03:04:01;12.80;;;6.70;;
72198;SDS011;60103;51.014;16.992;2022-07-04T03:06:29;14.30;;;6.00;;
72198;SDS011;60103;51.014;16.992;2022-07-04T03:08:57;13.20;;;6.00;;
72198;SDS011;60103;51.014;16.992;2022-07-04T03:11:24;12.40;;;6.10;;
72198;SDS011;60103;51.014;16.992;2022-07-04T03:13:52;12.40;;;5.90;;
72198;SDS011;60103;51.014;16.992;2022-07-04T03:16:19;15.50;;;5.90;;
72198;SDS011;60103;51.014;16.992;2022-07-04T03:18:46;17.50;;;5.60;;
72198;SDS011;60103;51.014;16.992;2022-07-04T03:21:14;14.70;;;5.50;;
72198;SDS011;60103;51.014;16.992;2022-07-04T03:23:41;14.20;;;5.50;;
72198;SDS011;60103;51.014;16.992;2022-07-04T03:26:08;14.90;;;5.40;;
72198;SDS011;60103;51.014;16.992;2022-07-04T03:28:36;14.80;;;5.00;;
72198;SDS011;60103;51.014;16.992;2022-07-04T03:31:03;19.50;;;4.80;;
72198;SDS011;60103;51.014;16.992;2022-07-04T03:33:30;14.90;;;4.90;;
72198;SDS011;60103;51.014;16.992;2022-07-04T03:35:58;14.50;;;5.00;;
72198;SDS011;60103;51.014;16.992;2022-07-04T03:38:25;13.70;;;4.70;;
72198;SDS011;60103;51.014;16.992;2022-07-04T03:40:53;16.00;;;5.00;;
72198;SDS011;60103;51.014;16.992;2022-07-04T03:43:20;12.10;;;4.10;;
72198;SDS011;60103;51.014;16.992;2022-07-04T03:45:48;12.00;;;4.60;;
72198;SDS011;60103;51.014;16.992;2022-07-04T03:48:16;11.90;;;4.20;;
72198;SDS011;60103;51.014;16.992;2022-07-04T03:50:44;17.70;;;4.50;;
72198;SDS011;60103;51.014;16.992;2022-07-04T03:53:11;11.30;;;4.30;;
72198;SDS011;60103;51.014;16.992;2022-07-04T03:55:39;11.20;;;4.10;;
72198;SDS011;60103;51.014;16.992;2022-07-04T03:58:07;10.60;;;4.10;;
72198;SDS011;60103;51.014;16.992;2022-07-04T04:00:35;11.00;;;3.80;;
72198;SDS011;60103;51.014;16.992;2022-07-04T04:03:02;10.00;;;3.90;;
72198;SDS011;60103;51.014;16.992;2022-07-04T04:05:49;12.90;;;3.40;;
72198;SDS011;60103;51.014;16.992;2022-07-04T04:08:17;11.60;;;4.10;;
72198;SDS011;60103;51.014;16.992;2022-07-04T04:10:44;10.90;;;3.70;;
72198;SDS011;60103;51.014;16.992;2022-07-04T04:13:13;10.50;;;3.10;;
72198;SDS011;60103;51.014;16.992;2022-07-04T04:15:40;10.50;;;4.00;;
72198;SDS011;60103;51.014;16.992;2022-07-04T04:18:08;13.80;;;4.10;;
72198;SDS011;60103;51.014;16.992;2022-07-04T04:20:35;16.00;;;3.70;;
72198;SDS011;60103;51.014;16.992;2022-07-04T04:23:03;11.00;;;3.50;;
72198;SDS011;60103;51.014;16.992;2022-07-04T04:25:31;9.90;;;3.40;;
72198;SDS011;60103;51.014;16.992;2022-07-04T04:27:58;11.00;;;3.60;;
72198;SDS011;60103;51.014;16.992;2022-07-04T04:30:26;8.60;;;3.60;;
72198;SDS011;60103;51.014;16.992;2022-07-04T04:32:53;10.70;;;3.60;;
72198;SDS011;60103;51.014;16.992;2022-07-04T04:35:21;9.60;;;3.40;;
72198;SDS011;60103;51.014;16.992;2022-07-04T04:37:48;8.10;;;3.40;;
72198;SDS011;60103;51.014;16.992;2022-07-04T04:40:15;10.00;;;3.20;;
72198;SDS011;60103;51.014;16.992;2022-07-04T04:42:43;8.60;;;3.20;;
72198;SDS011;60103;51.014;16.992;2022-07-04T04:45:11;9.80;;;3.50;;
72198;SDS011;60103;51.014;16.992;2022-07-04T04:47:38;8.40;;;3.40;;
72198;SDS011;60103;51.014;16.992;2022-07-04T04:50:05;8.40;;;3.10;;
72198;SDS011;60103;51.014;16.992;2022-07-04T04:52:40;8.10;;;3.10;;
72198;SDS011;60103;51.014;16.992;2022-07-04T04:55:08;8.40;;;3.40;;
72198;SDS011;60103;51.014;16.992;2022-07-04T04:57:35;8.40;;;3.20;;
72198;SDS011;60103;51.014;16.992;2022-07-04T05:00:03;8.30;;;3.50;;
72198;SDS011;60103;51.014;16.992;2022-07-04T05:02:31;10.80;;;3.50;;
72198;SDS011;60103;51.014;16.992;2022-07-04T05:04:58;8.70;;;3.70;;
72198;SDS011;60103;51.014;16.992;2022-07-04T05:07:25;8.20;;;3.50;;
72198;SDS011;60103;51.014;16.992;2022-07-04T05:09:52;11.30;;;3.30;;
72198;SDS011;60103;51.014;16.992;2022-07-04T05:12:26;8.40;;;3.20;;
72198;SDS011;60103;51.014;16.992;2022-07-04T05:14:53;9.00;;;3.40;;
72198;SDS011;60103;51.014;16.992;2022-07-04T05:17:21;8.10;;;3.30;;
72198;SDS011;60103;51.014;16.992;2022-07-04T05:19:48;7.90;;;3.30;;
72198;SDS011;60103;51.014;16.992;2022-07-04T05:22:16;6.60;;;2.60;;
72198;SDS011;60103;51.014;16.992;2022-07-04T05:24:43;8.70;;;3.10;;
72198;SDS011;60103;51.014;16.992;2022-07-04T05:27:11;7.90;;;3.10;;
72198;SDS011;60103;51.014;16.992;2022-07-04T05:29:38;9.10;;;3.30;;
72198;SDS011;60103;51.014;16.992;2022-07-04T05:32:06;8.10;;;3.20;;
72198;SDS011;60103;51.014;16.992;2022-07-04T05:34:35;7.20;;;3.10;;
72198;SDS011;60103;51.014;16.992;2022-07-04T05:37:02;7.40;;;3.10;;
72198;SDS011;60103;51.014;16.992;2022-07-04T05:39:30;7.30;;;3.00;;
72198;SDS011;60103;51.014;16.992;2022-07-04T05:41:57;7.70;;;2.90;;
72198;SDS011;60103;51.014;16.992;2022-07-04T05:44:25;7.90;;;3.30;;
72198;SDS011;60103;51.014;16.992;2022-07-04T05:46:52;8.00;;;3.00;;
72198;SDS011;60103;51.014;16.992;2022-07-04T05:49:21;7.20;;;3.20;;
72198;SDS011;60103;51.014;16.992;2022-07-04T05:51:48;8.30;;;2.70;;
72198;SDS011;60103;51.014;16.992;2022-07-04T05:54:15;7.60;;;2.70;;
72198;SDS011;60103;51.014;16.992;2022-07-04T05:56:43;6.20;;;2.50;;
72198;SDS011;60103;51.014;16.992;2022-07-04T05:59:11;6.60;;;2.90;;
72198;SDS011;60103;51.014;16.992;2022-07-04T06:01:38;8.20;;;3.00;;
72198;SDS011;60103;51.014;16.992;2022-07-04T06:04:06;7.00;;;2.80;;
72198;SDS011;60103;51.014;16.992;2022-07-04T06:06:34;8.60;;;2.90;;
72198;SDS011;60103;51.014;16.992;2022-07-04T06:09:02;7.30;;;2.70;;
72198;SDS011;60103;51.014;16.992;2022-07-04T06:11:29;7.30;;;2.90;;
72198;SDS011;60103;51.014;16.992;2022-07-04T06:13:58;6.40;;;2.80;;
72198;SDS011;60103;51.014;16.992;2022-07-04T06:16:25;11.60;;;3.00;;
72198;SDS011;60103;51.014;16.992;2022-07-04T06:18:53;8.40;;;2.60;;
72198;SDS011;60103;51.014;16.992;2022-07-04T06:21:21;7.40;;;2.50;;
72198;SDS011;60103;51.014;16.992;2022-07-04T06:23:48;8.70;;;3.10;;
72198;SDS011;60103;51.014;16.992;2022-07-04T06:26:18;8.80;;;2.80;;
72198;SDS011;60103;51.014;16.992;2022-07-04T06:28:45;8.30;;;3.00;;
72198;SDS011;60103;51.014;16.992;2022-07-04T06:31:13;9.20;;;3.40;;
72198;SDS011;60103;51.014;16.992;2022-07-04T06:33:42;8.60;;;2.80;;
72198;SDS011;60103;51.014;16.992;2022-07-04T06:36:29;7.60;;;2.60;;
72198;SDS011;60103;51.014;16.992;2022-07-04T06:38:57;9.90;;;3.00;;
72198;SDS011;60103;51.014;16.992;2022-07-04T06:41:26;6.60;;;2.70;;
72198;SDS011;60103;51.014;16.992;2022-07-04T06:43:53;6.50;;;2.60;;
72198;SDS011;60103;51.014;16.992;2022-07-04T06:46:20;7.00;;;2.60;;
72198;SDS011;60103;51.014;16.992;2022-07-04T06:48:48;9.00;;;2.60;;
72198;SDS011;60103;51.014;16.992;2022-07-04T06:51:15;8.60;;;2.30;;
72198;SDS011;60103;51.014;16.992;2022-07-04T06:53:43;9.00;;;2.60;;
72198;SDS011;60103;51.014;16.992;2022-07-04T06:56:12;7.10;;;2.50;;
72198;SDS011;60103;51.014;16.992;2022-07-04T06:58:40;7.00;;;2.60;;
72198;SDS011;60103;51.014;16.992;2022-07-04T07:01:08;7.20;;;2.40;;
72198;SDS011;60103;51.014;16.992;2022-07-04T07:03:35;6.30;;;2.60;;
72198;SDS011;60103;51.014;16.992;2022-07-04T07:06:03;7.00;;;2.50;;
72198;SDS011;60103;51.014;16.992;2022-07-04T07:08:30;8.40;;;2.80;;
72198;SDS011;60103;51.014;16.992;2022-07-04T07:10:58;7.90;;;2.40;;
72198;SDS011;60103;51.014;16.992;2022-07-04T07:13:41;8.90;;;2.40;;
72198;SDS011;60103;51.014;16.992;2022-07-04T07:16:09;5.80;;;2.50;;
72198;SDS011;60103;51.014;16.992;2022-07-04T07:18:37;6.10;;;2.70;;
72198;SDS011;60103;51.014;16.992;2022-07-04T07:21:04;6.90;;;2.60;;
72198;SDS011;60103;51.014;16.992;2022-07-04T07:23:32;7.60;;;2.70;;
72198;SDS011;60103;51.014;16.992;2022-07-04T07:25:59;7.90;;;2.90;;
72198;SDS011;60103;51.014;16.992;2022-07-04T07:28:26;7.00;;;2.40;;
72198;SDS011;60103;51.014;16.992;2022-07-04T07:30:54;6.80;;;2.30;;
72198;SDS011;60103;51.014;16.992;2022-07-04T07:33:21;7.30;;;2.90;;
72198;SDS011;60103;51.014;16.992;2022-07-04T07:35:49;6.90;;;2.60;;
72198;SDS011;60103;51.014;16.992;2022-07-04T07:38:16;8.80;;;2.60;;
72198;SDS011;60103;51.014;16.992;2022-07-04T07:40:44;8.10;;;2.40;;
72198;SDS011;60103;51.014;16.992;2022-07-04T07:43:11;7.40;;;2.70;;
72198;SDS011;60103;51.014;16.992;2022-07-04T07:45:39;7.40;;;2.60;;
72198;SDS011;60103;51.014;16.992;2022-07-04T07:48:07;8.00;;;2.90;;
72198;SDS011;60103;51.014;16.992;2022-07-04T07:50:34;6.70;;;3.00;;
72198;SDS011;60103;51.014;16.992;2022-07-04T07:53:03;6.70;;;2.40;;
72198;SDS011;60103;51.014;16.992;2022-07-04T07:55:31;7.70;;;2.60;;
72198;SDS011;60103;51.014;16.992;2022-07-04T07:57:58;8.40;;;2.50;;
72198;SDS011;60103;51.014;16.992;2022-07-04T08:00:26;6.90;;;2.50;;
72198;SDS011;60103;51.014;16.992;2022-07-04T08:03:14;9.30;;;3.00;;
72198;SDS011;60103;51.014;16.992;2022-07-04T08:06:00;8.30;;;2.70;;
72198;SDS011;60103;51.014;16.992;2022-07-04T08:08:27;6.70;;;2.30;;
72198;SDS011;60103;51.014;16.992;2022-07-04T08:10:55;10.70;;;3.10;;
72198;SDS011;60103;51.014;16.992;2022-07-04T08:13:22;7.30;;;2.50;;
72198;SDS011;60103;51.014;16.992;2022-07-04T08:15:50;7.60;;;2.60;;
72198;SDS011;60103;51.014;16.992;2022-07-04T08:18:17;7.50;;;2.40;;
72198;SDS011;60103;51.014;16.992;2022-07-04T08:20:45;6.20;;;2.50;;
72198;SDS011;60103;51.014;16.992;2022-07-04T08:23:28;7.60;;;2.60;;
72198;SDS011;60103;51.014;16.992;2022-07-04T08:25:56;6.40;;;2.70;;
72198;SDS011;60103;51.014;16.992;2022-07-04T08:28:25;8.50;;;2.80;;
72198;SDS011;60103;51.014;16.992;2022-07-04T08:30:53;6.10;;;2.40;;
72198;SDS011;60103;51.014;16.992;2022-07-04T08:33:20;6.70;;;2.50;;
72198;SDS011;60103;51.014;16.992;2022-07-04T08:35:49;6.20;;;2.30;;
72198;SDS011;60103;51.014;16.992;2022-07-04T08:38:17;8.70;;;2.60;;
72198;SDS011;60103;51.014;16.992;2022-07-04T08:40:44;7.00;;;2.70;;
72198;SDS011;60103;51.014;16.992;2022-07-04T08:43:15;7.20;;;2.60;;
72198;SDS011;60103;51.014;16.992;2022-07-04T08:45:43;6.20;;;2.30;;
72198;SDS011;60103;51.014;16.992;2022-07-04T08:48:34;7.90;;;2.60;;
72198;SDS011;60103;51.014;16.992;2022-07-04T08:51:09;8.50;;;2.80;;
72198;SDS011;60103;51.014;16.992;2022-07-04T08:53:41;6.80;;;2.80;;
72198;SDS011;60103;51.014;16.992;2022-07-04T08:56:21;8.70;;;2.70;;
72198;SDS011;60103;51.014;16.992;2022-07-04T08:59:09;8.90;;;2.40;;
72198;SDS011;60103;51.014;16.992;2022-07-04T09:01:38;7.40;;;3.00;;
72198;SDS011;60103;51.014;16.992;2022-07-04T09:04:08;8.40;;;2.80;;
72198;SDS011;60103;51.014;16.992;2022-07-04T09:06:37;9.50;;;3.30;;
72198;SDS011;60103;51.014;16.992;2022-07-04T09:09:05;7.00;;;2.80;;
72198;SDS011;60103;51.014;16.992;2022-07-04T09:11:35;7.00;;;2.40;;
72198;SDS011;60103;51.014;16.992;2022-07-04T09:14:02;7.30;;;3.20;;
72198;SDS011;60103;51.014;16.992;2022-07-04T09:16:29;7.80;;;2.80;;
72198;SDS011;60103;51.014;16.992;2022-07-04T09:18:57;7.10;;;2.90;;
72198;SDS011;60103;51.014;16.992;2022-07-04T09:21:41;6.70;;;2.60;;
72198;SDS011;60103;51.014;16.992;2022-07-04T09:24:10;9.70;;;3.30;;
72198;SDS011;60103;51.014;16.992;2022-07-04T09:26:40;7.70;;;3.10;;
72198;SDS011;60103;51.014;16.992;2022-07-04T09:29:14;10.30;;;3.30;;
72198;SDS011;60103;51.014;16.992;2022-07-04T09:31:41;7.50;;;2.90;;
72198;SDS011;60103;51.014;16.992;2022-07-04T09:34:08;7.00;;;2.90;;
72198;SDS011;60103;51.014;16.992;2022-07-04T09:36:39;7.90;;;3.70;;
72198;SDS011;60103;51.014;16.992;2022-07-04T09:39:12;8.70;;;3.50;;
72198;SDS011;60103;51.014;16.992;2022-07-04T09:44:25;9.80;;;3.80;;
72198;SDS011;60103;51.014;16.992;2022-07-04T09:46:55;10.00;;;3.80;;
72198;SDS011;60103;51.014;16.992;2022-07-04T09:49:23;8.10;;;3.80;;
72198;SDS011;60103;51.014;16.992;2022-07-04T09:51:51;6.80;;;3.40;;
72198;SDS011;60103;51.014;16.992;2022-07-04T09:54:27;8.50;;;4.00;;
72198;SDS011;60103;51.014;16.992;2022-07-04T09:57:00;9.80;;;4.10;;
72198;SDS011;60103;51.014;16.992;2022-07-04T09:59:29;10.20;;;3.80;;
72198;SDS011;60103;51.014;16.992;2022-07-04T10:02:10;9.50;;;4.50;;
72198;SDS011;60103;51.014;16.992;2022-07-04T10:04:42;8.40;;;4.10;;
72198;SDS011;60103;51.014;16.992;2022-07-04T10:07:12;9.90;;;4.70;;
72198;SDS011;60103;51.014;16.992;2022-07-04T10:09:57;7.90;;;4.20;;
72198;SDS011;60103;51.014;16.992;2022-07-04T10:12:25;10.20;;;4.60;;
72198;SDS011;60103;51.014;16.992;2022-07-04T10:14:56;9.10;;;4.30;;
72198;SDS011;60103;51.014;16.992;2022-07-04T10:17:24;7.80;;;4.10;;
72198;SDS011;60103;51.014;16.992;2022-07-04T10:19:51;9.30;;;4.40;;
72198;SDS011;60103;51.014;16.992;2022-07-04T10:22:20;9.90;;;4.20;;
72198;SDS011;60103;51.014;16.992;2022-07-04T10:24:50;7.40;;;4.10;;
72198;SDS011;60103;51.014;16.992;2022-07-04T10:27:17;8.40;;;3.70;;
72198;SDS011;60103;51.014;16.992;2022-07-04T10:29:46;7.70;;;4.20;;
72198;SDS011;60103;51.014;16.992;2022-07-04T10:32:13;9.60;;;4.20;;
72198;SDS011;60103;51.014;16.992;2022-07-04T10:34:41;8.90;;;4.30;;
72198;SDS011;60103;51.014;16.992;2022-07-04T10:37:08;8.60;;;4.30;;
72198;SDS011;60103;51.014;16.992;2022-07-04T10:39:35;7.70;;;4.00;;
72198;SDS011;60103;51.014;16.992;2022-07-04T10:42:03;7.10;;;3.70;;
72198;SDS011;60103;51.014;16.992;2022-07-04T10:44:33;7.10;;;3.40;;
72198;SDS011;60103;51.014;16.992;2022-07-04T10:47:07;9.10;;;4.00;;
72198;SDS011;60103;51.014;16.992;2022-07-04T10:49:57;7.80;;;3.90;;
72198;SDS011;60103;51.014;16.992;2022-07-04T10:52:25;9.70;;;3.70;;
72198;SDS011;60103;51.014;16.992;2022-07-04T10:54:52;8.10;;;3.80;;
72198;SDS011;60103;51.014;16.992;2022-07-04T11:02:35;8.40;;;3.80;;
72198;SDS011;60103;51.014;16.992;2022-07-04T11:05:05;8.10;;;4.10;;
72198;SDS011;60103;51.014;16.992;2022-07-04T11:17:56;8.10;;;3.80;;
72198;SDS011;60103;51.014;16.992;2022-07-04T11:20:25;7.00;;;3.50;;
72198;SDS011;60103;51.014;16.992;2022-07-04T11:23:06;6.90;;;3.60;;
72198;SDS011;60103;51.014;16.992;2022-07-04T11:25:35;8.00;;;3.70;;
72198;SDS011;60103;51.014;16.992;2022-07-04T11:31:08;9.00;;;4.00;;
72198;SDS011;60103;51.014;16.992;2022-07-04T11:33:37;7.70;;;3.60;;
72198;SDS011;60103;51.014;16.992;2022-07-04T11:36:13;8.50;;;3.80;;
72198;SDS011;60103;51.014;16.992;2022-07-04T11:41:26;8.70;;;3.30;;
72198;SDS011;60103;51.014;16.992;2022-07-04T11:44:14;7.90;;;3.20;;
72198;SDS011;60103;51.014;16.992;2022-07-04T11:47:05;8.30;;;3.40;;
72198;SDS011;60103;51.014;16.992;2022-07-04T11:49:33;8.40;;;4.30;;
72198;SDS011;60103;51.014;16.992;2022-07-04T11:52:00;7.80;;;3.90;;
72198;SDS011;60103;51.014;16.992;2022-07-04T11:54:28;8.80;;;3.80;;
72198;SDS011;60103;51.014;16.992;2022-07-04T11:59:52;7.20;;;3.80;;
72198;SDS011;60103;51.014;16.992;2022-07-04T12:02:30;9.40;;;3.50;;
72198;SDS011;60103;51.014;16.992;2022-07-04T12:05:01;9.10;;;3.70;;
72198;SDS011;60103;51.014;16.992;2022-07-04T12:07:31;8.80;;;3.40;;
72198;SDS011;60103;51.014;16.992;2022-07-04T12:10:07;8.70;;;3.40;;
72198;SDS011;60103;51.014;16.992;2022-07-04T12:15:22;8.10;;;3.80;;
72198;SDS011;60103;51.014;16.992;2022-07-04T12:17:51;8.90;;;3.50;;
72198;SDS011;60103;51.014;16.992;2022-07-04T12:20:22;7.70;;;3.30;;
72198;SDS011;60103;51.014;16.992;2022-07-04T12:22:52;6.90;;;3.40;;
72198;SDS011;60103;51.014;16.992;2022-07-04T12:28:07;10.00;;;3.50;;
72198;SDS011;60103;51.014;16.992;2022-07-04T12:30:36;9.00;;;3.50;;
72198;SDS011;60103;51.014;16.992;2022-07-04T12:33:06;9.10;;;3.50;;
72198;SDS011;60103;51.014;16.992;2022-07-04T12:35:48;7.30;;;3.60;;
72198;SDS011;60103;51.014;16.992;2022-07-04T12:43:46;6.70;;;3.10;;
72198;SDS011;60103;51.014;16.992;2022-07-04T12:46:15;7.00;;;3.10;;
72198;SDS011;60103;51.014;16.992;2022-07-04T12:48:54;8.10;;;3.40;;
72198;SDS011;60103;51.014;16.992;2022-07-04T12:51:23;7.50;;;3.60;;
72198;SDS011;60103;51.014;16.992;2022-07-04T12:53:55;6.70;;;3.10;;
72198;SDS011;60103;51.014;16.992;2022-07-04T12:56:37;8.50;;;3.40;;
72198;SDS011;60103;51.014;16.992;2022-07-04T13:01:41;7.60;;;3.80;;
72198;SDS011;60103;51.014;16.992;2022-07-04T13:04:09;8.30;;;2.90;;
72198;SDS011;60103;51.014;16.992;2022-07-04T13:06:39;8.70;;;3.30;;
72198;SDS011;60103;51.014;16.992;2022-07-04T13:09:06;8.50;;;3.10;;
72198;SDS011;60103;51.014;16.992;2022-07-04T13:11:35;6.70;;;3.30;;
72198;SDS011;60103;51.014;16.992;2022-07-04T13:14:22;10.20;;;3.40;;
72198;SDS011;60103;51.014;16.992;2022-07-04T13:16:49;6.90;;;3.00;;
72198;SDS011;60103;51.014;16.992;2022-07-04T13:19:16;8.40;;;3.20;;
72198;SDS011;60103;51.014;16.992;2022-07-04T13:21:44;8.40;;;3.20;;
72198;SDS011;60103;51.014;16.992;2022-07-04T13:24:12;8.90;;;3.10;;
72198;SDS011;60103;51.014;16.992;2022-07-04T13:26:40;8.40;;;3.20;;
72198;SDS011;60103;51.014;16.992;2022-07-04T13:29:09;6.30;;;3.10;;
72198;SDS011;60103;51.014;16.992;2022-07-04T13:31:38;7.90;;;3.00;;
72198;SDS011;60103;51.014;16.992;2022-07-04T13:34:06;8.60;;;3.10;;
72198;SDS011;60103;51.014;16.992;2022-07-04T13:36:33;6.50;;;3.10;;
72198;SDS011;60103;51.014;16.992;2022-07-04T13:39:00;6.50;;;3.10;;
72198;SDS011;60103;51.014;16.992;2022-07-04T13:41:32;7.60;;;2.90;;
72198;SDS011;60103;51.014;16.992;2022-07-04T13:44:00;6.60;;;2.60;;
72198;SDS011;60103;51.014;16.992;2022-07-04T13:46:28;8.20;;;2.90;;
72198;SDS011;60103;51.014;16.992;2022-07-04T13:48:55;9.60;;;3.40;;
72198;SDS011;60103;51.014;16.992;2022-07-04T13:51:22;7.60;;;2.70;;
72198;SDS011;60103;51.014;16.992;2022-07-04T13:53:50;6.80;;;3.10;;
72198;SDS011;60103;51.014;16.992;2022-07-04T13:56:17;7.50;;;2.70;;
72198;SDS011;60103;51.014;16.992;2022-07-04T13:58:45;8.60;;;3.10;;
72198;SDS011;60103;51.014;16.992;2022-07-04T14:01:15;14.40;;;3.70;;
72198;SDS011;60103;51.014;16.992;2022-07-04T14:03:47;9.10;;;3.20;;
72198;SDS011;60103;51.014;16.992;2022-07-04T14:06:16;7.60;;;2.90;;
72198;SDS011;60103;51.014;16.992;2022-07-04T14:08:45;11.60;;;2.80;;
72198;SDS011;60103;51.014;16.992;2022-07-04T14:11:12;9.30;;;2.60;;
72198;SDS011;60103;51.014;16.992;2022-07-04T14:13:39;6.80;;;2.40;;
72198;SDS011;60103;51.014;16.992;2022-07-04T14:16:07;7.40;;;2.60;;
72198;SDS011;60103;51.014;16.992;2022-07-04T14:18:34;6.40;;;2.60;;
72198;SDS011;60103;51.014;16.992;2022-07-04T14:21:03;7.20;;;3.10;;
72198;SDS011;60103;51.014;16.992;2022-07-04T14:23:30;6.80;;;2.90;;
72198;SDS011;60103;51.014;16.992;2022-07-04T14:26:13;6.30;;;2.20;;
72198;SDS011;60103;51.014;16.992;2022-07-04T14:28:42;7.20;;;2.50;;
72198;SDS011;60103;51.014;16.992;2022-07-04T14:31:13;8.70;;;2.40;;
72198;SDS011;60103;51.014;16.992;2022-07-04T14:33:42;6.90;;;2.20;;
72198;SDS011;60103;51.014;16.992;2022-07-04T14:36:09;6.40;;;2.40;;
72198;SDS011;60103;51.014;16.992;2022-07-04T14:38:37;6.10;;;2.30;;
72198;SDS011;60103;51.014;16.992;2022-07-04T14:41:05;8.50;;;2.30;;
72198;SDS011;60103;51.014;16.992;2022-07-04T14:46:06;6.50;;;2.40;;
72198;SDS011;60103;51.014;16.992;2022-07-04T14:48:35;8.10;;;2.20;;
72198;SDS011;60103;51.014;16.992;2022-07-04T14:51:03;5.80;;;2.40;;
72198;SDS011;60103;51.014;16.992;2022-07-04T14:53:30;6.60;;;2.30;;
72198;SDS011;60103;51.014;16.992;2022-07-04T14:55:58;5.40;;;2.10;;
72198;SDS011;60103;51.014;16.992;2022-07-04T14:58:25;6.10;;;2.30;;
72198;SDS011;60103;51.014;16.992;2022-07-04T15:00:53;6.20;;;2.60;;
72198;SDS011;60103;51.014;16.992;2022-07-04T15:03:21;8.00;;;2.60;;
72198;SDS011;60103;51.014;16.992;2022-07-04T15:05:49;6.20;;;2.60;;
72198;SDS011;60103;51.014;16.992;2022-07-04T15:08:16;6.80;;;2.60;;
72198;SDS011;60103;51.014;16.992;2022-07-04T15:10:44;6.80;;;2.30;;
72198;SDS011;60103;51.014;16.992;2022-07-04T15:13:27;5.90;;;2.20;;
72198;SDS011;60103;51.014;16.992;2022-07-04T15:15:55;8.00;;;2.20;;
72198;SDS011;60103;51.014;16.992;2022-07-04T15:18:43;7.00;;;2.20;;
72198;SDS011;60103;51.014;16.992;2022-07-04T15:21:10;6.70;;;2.20;;
72198;SDS011;60103;51.014;16.992;2022-07-04T15:23:56;6.80;;;2.40;;
72198;SDS011;60103;51.014;16.992;2022-07-04T15:26:46;6.50;;;2.30;;